Time;durP1;ratioP1;P1;durP2;ratioP2;P2;SDS_P1;SDS_P2;PMS_P1;PMS_P2;Temp;Humidity;BMP_temperature;BMP_pressure;BME280_temperature;BME280_humidity;BME280_pressure;Samples;Min_cycle;Max_cycle;Signal;HPM_P1;HPM_P2
2021/05/04 00:00:43;;;;;;;4.53;4.13;;;1.00;99.90;;;;;;5141745;27;20051;-83
2021/05/04 00:03:10;;;;;;;6.15;4.03;;;1.00;99.90;;;;;;5123139;28;20039;-82
2021/05/04 00:05:36;;;;;;;5.28;4.75;;;1.00;99.90;;;;;;5124856;28;20410;-82
2021/05/04 00:08:02;;;;;;;4.75;4.03;;;0.90;99.90;;;;;;5126206;28;20047;-83
2021/05/04 00:10:28;;;;;;;4.80;4.40;;;0.80;99.90;;;;;;5143668;27;20065;-83
2021/05/04 00:12:55;;;;;;;5.22;4.60;;;0.80;99.90;;;;;;5108090;28;20102;-84
2021/05/04 00:15:21;;;;;;;6.93;5.07;;;0.90;99.90;;;;;;5126146;28;20070;-83
2021/05/04 00:17:47;;;;;;;6.03;4.90;;;0.90;99.90;;;;;;5127009;28;20075;-83
2021/05/04 00:20:14;;;;;;;4.43;4.05;;;1.00;99.90;;;;;;5116974;28;20047;-81
2021/05/04 00:22:40;;;;;;;5.18;4.68;;;1.10;99.90;;;;;;5145586;28;20051;-82
2021/05/04 00:25:07;;;;;;;4.72;4.10;;;1.10;99.90;;;;;;5127204;28;20051;-81
2021/05/04 00:27:33;;;;;;;5.35;4.10;;;1.10;99.90;;;;;;5127311;28;20471;-82
2021/05/04 00:30:02;;;;;;;7.07;4.00;;;1.20;99.90;;;;;;5128043;28;20051;-82
2021/05/04 00:32:28;;;;;;;5.35;4.32;;;1.20;99.90;;;;;;5127845;28;20067;-81
2021/05/04 00:34:55;;;;;;;4.90;4.30;;;1.20;99.90;;;;;;5129165;27;20051;-82
2021/05/04 00:37:21;;;;;;;4.35;3.95;;;1.20;99.90;;;;;;5132569;27;20084;-83
2021/05/04 00:39:48;;;;;;;4.88;4.35;;;1.30;99.90;;;;;;5130986;27;20043;-82
2021/05/04 00:42:14;;;;;;;4.80;4.00;;;1.30;99.90;;;;;;5133230;27;20051;-82
2021/05/04 00:44:41;;;;;;;5.82;4.03;;;1.30;99.90;;;;;;5114520;27;20051;-82
2021/05/04 00:47:07;;;;;;;9.45;4.10;;;1.30;99.90;;;;;;5130790;27;20524;-82
2021/05/04 00:49:34;;;;;;;4.22;3.60;;;1.30;99.90;;;;;;5129251;27;20131;-81
2021/05/04 00:52:01;;;;;;;4.20;3.90;;;1.30;99.90;;;;;;5112464;28;20048;-82
2021/05/04 00:54:28;;;;;;;4.65;4.22;;;1.30;99.90;;;;;;5113318;27;20071;-81
2021/05/04 00:56:55;;;;;;;7.97;4.43;;;1.30;99.90;;;;;;5128185;27;20105;-80
2021/05/04 00:59:25;;;;;;;4.43;4.00;;;1.30;99.90;;;;;;5122038;27;20473;-81
2021/05/04 01:01:52;;;;;;;4.65;4.13;;;1.20;99.90;;;;;;5121609;27;20126;-81
2021/05/04 01:04:20;;;;;;;5.88;3.75;;;1.30;99.90;;;;;;5120859;27;20049;-81
2021/05/04 01:06:47;;;;;;;6.47;3.88;;;1.30;99.90;;;;;;5118066;28;20521;-80
2021/05/04 01:09:14;;;;;;;5.00;3.80;;;1.30;99.90;;;;;;5118512;28;20101;-80
2021/05/04 01:11:42;;;;;;;4.75;4.03;;;1.30;99.90;;;;;;5119949;27;20073;-80
2021/05/04 01:14:09;;;;;;;4.70;4.20;;;1.30;99.90;;;;;;5138594;27;20510;-80
2021/05/04 01:16:41;;;;;;;4.97;4.47;;;1.30;99.90;;;;;;5119928;27;20043;-81
2021/05/04 01:19:08;;;;;;;5.32;3.85;;;1.30;99.90;;;;;;5101707;28;20043;-81
2021/05/04 01:21:34;;;;;;;3.58;3.38;;;1.30;99.90;;;;;;5141454;27;20047;-81
2021/05/04 01:24:00;;;;;;;5.40;4.00;;;1.30;99.90;;;;;;5126433;27;20074;-82
2021/05/04 01:26:26;;;;;;;4.85;4.32;;;1.30;99.90;;;;;;5109198;28;20073;-82
2021/05/04 01:28:53;;;;;;;6.72;4.30;;;1.30;99.90;;;;;;5109999;28;20047;-80
2021/05/04 01:31:19;;;;;;;7.50;4.15;;;1.20;99.90;;;;;;5131851;27;20122;-81
2021/05/04 01:33:45;;;;;;;6.30;4.40;;;1.20;99.90;;;;;;5137863;27;20050;-81
2021/05/04 01:36:12;;;;;;;5.63;4.28;;;1.20;99.90;;;;;;5122159;27;20458;-80
2021/05/04 01:38:38;;;;;;;5.20;4.47;;;1.20;99.90;;;;;;5141460;27;20078;-81
2021/05/04 01:41:04;;;;;;;4.45;4.05;;;1.20;99.90;;;;;;5127618;27;20082;-81
2021/05/04 01:43:30;;;;;;;4.78;4.05;;;1.20;99.90;;;;;;5102077;28;20090;-81
2021/05/04 01:45:56;;;;;;;9.57;4.57;;;1.20;99.90;;;;;;5119891;28;20083;-81
2021/05/04 01:48:23;;;;;;;5.30;4.25;;;1.10;99.90;;;;;;5100204;28;20048;-81
2021/05/04 01:50:50;;;;;;;11.38;5.13;;;1.10;99.90;;;;;;5110528;28;20046;-81
2021/05/04 01:53:16;;;;;;;8.00;4.55;;;1.20;99.90;;;;;;5101507;28;20491;-80
2021/05/04 01:55:42;;;;;;;5.88;4.57;;;1.20;99.90;;;;;;5092808;28;20051;-80
2021/05/04 01:58:08;;;;;;;5.15;4.43;;;1.20;99.90;;;;;;5097941;28;20094;-81
2021/05/04 02:00:34;;;;;;;8.95;4.95;;;1.20;99.90;;;;;;5097622;28;20421;-81
2021/05/04 02:03:01;;;;;;;6.07;4.50;;;1.20;99.90;;;;;;5098265;28;20103;-81
2021/05/04 02:05:27;;;;;;;10.15;5.20;;;1.20;99.90;;;;;;5101523;28;20083;-80
2021/05/04 02:07:53;;;;;;;5.28;4.88;;;1.20;99.90;;;;;;5120764;28;20613;-80
2021/05/04 02:10:20;;;;;;;4.65;3.95;;;1.30;99.90;;;;;;5114936;28;20051;-82
2021/05/04 02:12:46;;;;;;;6.25;5.07;;;1.30;99.90;;;;;;5100338;28;20078;-82
2021/05/04 02:15:13;;;;;;;5.07;4.60;;;1.30;99.90;;;;;;5101542;28;20104;-81
2021/05/04 02:17:39;;;;;;;6.80;4.85;;;1.30;99.90;;;;;;5101294;28;20507;-81
2021/05/04 02:20:07;;;;;;;5.40;4.90;;;1.30;99.90;;;;;;5102294;28;20108;-81
2021/05/04 02:22:33;;;;;;;5.28;4.80;;;1.30;99.90;;;;;;5120726;28;20464;-81
2021/05/04 02:25:00;;;;;;;5.32;4.75;;;1.30;99.90;;;;;;5101171;28;20122;-82
2021/05/04 02:27:27;;;;;;;5.93;4.70;;;1.30;99.90;;;;;;5098046;28;20101;-81
2021/05/04 02:29:53;;;;;;;5.13;4.68;;;1.30;99.90;;;;;;5099446;28;20048;-83
2021/05/04 02:32:19;;;;;;;9.30;4.93;;;1.30;99.90;;;;;;5103634;28;20510;-81
2021/05/04 02:34:46;;;;;;;4.88;4.32;;;1.30;99.90;;;;;;5122437;28;20143;-81
2021/05/04 02:37:12;;;;;;;5.50;4.68;;;1.30;99.90;;;;;;5121802;28;20518;-82
2021/05/04 02:39:39;;;;;;;9.30;5.13;;;1.30;99.90;;;;;;5104619;28;20052;-81
2021/05/04 02:42:07;;;;;;;6.50;4.88;;;1.30;99.90;;;;;;5118935;28;20040;-81
2021/05/04 02:44:33;;;;;;;11.18;5.65;;;1.30;99.90;;;;;;5123055;28;20139;-81
2021/05/04 02:46:59;;;;;;;5.15;4.55;;;1.40;99.90;;;;;;5125447;27;20058;-81
2021/05/04 02:49:26;;;;;;;5.30;4.80;;;1.50;99.90;;;;;;5123376;27;20086;-81
2021/05/04 02:51:53;;;;;;;8.80;4.68;;;1.50;99.90;;;;;;5142463;27;20395;-81
2021/05/04 02:54:20;;;;;;;5.80;4.75;;;1.60;99.90;;;;;;5119452;27;20524;-81
2021/05/04 02:56:46;;;;;;;7.38;4.90;;;1.60;99.90;;;;;;5118787;27;20130;-81
2021/05/04 02:59:12;;;;;;;6.45;4.60;;;1.70;99.90;;;;;;5138099;27;20074;-81
2021/05/04 03:01:39;;;;;;;5.45;4.90;;;1.80;99.90;;;;;;5119805;27;20418;-81
2021/05/04 03:04:05;;;;;;;7.88;5.25;;;1.60;99.90;;;;;;5118572;27;20051;-81
2021/05/04 03:06:32;;;;;;;6.57;4.95;;;1.70;99.90;;;;;;5119017;27;20051;-81
2021/05/04 03:08:58;;;;;;;8.60;5.90;;;1.60;99.90;;;;;;5137151;27;20071;-81
2021/05/04 03:11:25;;;;;;;9.73;4.90;;;1.70;99.90;;;;;;5118022;27;20091;-81
2021/05/04 03:13:51;;;;;;;7.50;4.93;;;1.70;99.90;;;;;;5136877;27;20053;-81
2021/05/04 03:16:17;;;;;;;7.85;5.40;;;1.60;99.90;;;;;;5117704;27;20130;-81
2021/05/04 03:18:44;;;;;;;11.93;6.03;;;1.60;99.90;;;;;;5118073;27;20044;-81
2021/05/04 03:21:10;;;;;;;11.63;5.53;;;1.60;99.90;;;;;;5117051;27;20459;-81
2021/05/04 03:23:36;;;;;;;14.30;5.20;;;1.60;99.90;;;;;;5116891;27;20155;-81
2021/05/04 03:26:03;;;;;;;13.60;5.75;;;1.60;99.90;;;;;;5128282;27;20069;-81
2021/05/04 03:28:29;;;;;;;11.57;5.97;;;1.70;99.90;;;;;;5098334;28;20074;-81
2021/05/04 03:30:55;;;;;;;10.80;5.68;;;1.80;99.90;;;;;;5102463;27;20087;-81
2021/05/04 03:33:21;;;;;;;13.43;5.78;;;1.80;99.90;;;;;;5117907;27;20486;-81
2021/05/04 03:35:49;;;;;;;15.80;5.82;;;1.90;99.90;;;;;;5121608;27;20043;-81
2021/05/04 03:38:15;;;;;;;10.23;6.53;;;1.90;99.90;;;;;;5121211;27;20082;-81
2021/05/04 03:40:41;;;;;;;14.85;5.57;;;2.00;99.90;;;;;;5137134;27;20541;-82
2021/05/04 03:43:08;;;;;;;21.73;6.53;;;2.10;99.90;;;;;;5119874;28;20458;-82
2021/05/04 03:45:34;;;;;;;11.23;6.35;;;2.10;99.90;;;;;;5104842;27;20120;-81
2021/05/04 03:48:00;;;;;;;12.30;6.97;;;2.20;99.90;;;;;;5124419;27;20052;-81
2021/05/04 03:50:28;;;;;;;17.20;7.03;;;2.20;99.90;;;;;;5124700;27;20063;-82
2021/05/04 03:52:56;;;;;;;16.75;6.72;;;2.30;99.90;;;;;;5145461;27;20068;-81
2021/05/04 03:55:24;;;;;;;12.27;6.45;;;2.30;99.90;;;;;;5146022;27;20100;-82
2021/05/04 03:57:50;;;;;;;13.95;6.72;;;2.40;99.90;;;;;;5145723;27;20047;-82
2021/05/04 04:00:17;;;;;;;11.68;6.13;;;2.40;99.90;;;;;;5123633;27;20103;-81
2021/05/04 04:02:43;;;;;;;12.43;6.60;;;2.40;99.90;;;;;;5104612;28;20051;-81
2021/05/04 04:05:10;;;;;;;14.43;7.25;;;2.50;99.90;;;;;;5124546;28;20082;-81
2021/05/04 04:07:37;;;;;;;31.05;7.70;;;2.60;99.90;;;;;;5122181;28;20074;-81
2021/05/04 04:10:04;;;;;;;40.50;7.75;;;2.70;99.90;;;;;;5124740;28;20044;-82
2021/05/04 04:12:31;;;;;;;28.73;6.63;;;3.20;99.90;;;;;;5127951;28;20483;-81
2021/05/04 04:14:57;;;;;;;5.90;5.30;;;3.40;99.90;;;;;;5125635;28;20039;-84
2021/05/04 04:17:23;;;;;;;5.50;5.00;;;3.90;99.90;;;;;;5121068;28;20392;-83
2021/05/04 04:19:51;;;;;;;4.75;4.30;;;4.50;99.90;;;;;;5121054;28;20044;-82
2021/05/04 04:22:17;;;;;;;4.07;3.78;;;5.20;99.90;;;;;;5104063;28;20118;-82
2021/05/04 04:24:45;;;;;;;5.18;4.20;;;6.10;99.90;;;;;;5123784;28;20040;-80
2021/05/04 04:27:12;;;;;;;8.57;3.80;;;6.50;99.90;;;;;;5125151;28;20126;-82
2021/05/04 04:29:39;;;;;;;4.45;4.05;;;7.00;99.90;;;;;;5125087;28;20043;-82
2021/05/04 04:32:07;;;;;;;5.15;3.50;;;7.20;99.90;;;;;;5141926;28;20077;-83
2021/05/04 04:34:33;;;;;;;3.92;3.55;;;7.50;99.90;;;;;;5126139;28;20067;-82
2021/05/04 04:37:00;;;;;;;4.20;3.47;;;7.60;99.90;;;;;;5124902;28;20082;-81
2021/05/04 04:39:27;;;;;;;7.63;3.65;;;7.70;99.90;;;;;;5125911;28;20082;-82
2021/05/04 04:41:53;;;;;;;3.83;3.38;;;7.90;99.90;;;;;;5124165;28;20082;-81
2021/05/04 04:44:20;;;;;;;3.40;3.20;;;7.90;99.90;;;;;;5124845;28;20506;-82
2021/05/04 04:46:46;;;;;;;5.70;3.60;;;8.00;99.90;;;;;;5115367;28;20502;-80
2021/05/04 04:49:18;;;;;;;3.45;3.13;;;8.10;99.90;;;;;;5123222;28;20048;-82
2021/05/04 04:51:48;;;;;;;3.80;3.40;;;8.10;99.90;;;;;;5122180;28;20066;-81
2021/05/04 04:54:14;;;;;;;3.63;3.20;;;8.10;99.90;;;;;;5123098;28;20088;-83
2021/05/04 04:56:41;;;;;;;3.38;3.08;;;8.10;99.90;;;;;;5121119;28;20051;-83
2021/05/04 04:59:08;;;;;;;3.75;3.42;;;8.10;99.90;;;;;;5122402;28;20101;-82
2021/05/04 05:01:35;;;;;;;7.47;3.45;;;8.20;99.90;;;;;;5123950;28;20050;-81
2021/05/04 05:04:03;;;;;;;5.00;3.42;;;8.30;99.90;;;;;;5122034;28;20079;-83
2021/05/04 05:06:31;;;;;;;5.60;3.45;;;8.30;99.90;;;;;;5122102;28;20044;-82
2021/05/04 05:08:57;;;;;;;6.90;3.10;;;8.40;99.90;;;;;;5121029;28;20054;-84
2021/05/04 05:11:23;;;;;;;3.55;3.25;;;8.40;99.90;;;;;;5119867;28;20050;-83
2021/05/04 05:13:50;;;;;;;3.75;3.45;;;8.40;99.90;;;;;;5122429;28;20100;-81
2021/05/04 05:16:19;;;;;;;3.17;2.97;;;8.40;99.90;;;;;;5138245;28;20043;-82
2021/05/04 05:18:51;;;;;;;3.15;2.95;;;8.50;99.90;;;;;;5120328;28;20044;-82
2021/05/04 05:21:18;;;;;;;3.30;2.92;;;8.50;99.90;;;;;;5122968;28;20425;-82
2021/05/04 05:23:44;;;;;;;3.58;3.22;;;8.50;99.90;;;;;;5111752;27;20057;-81
2021/05/04 05:26:11;;;;;;;5.55;3.40;;;8.50;99.90;;;;;;5111647;27;20074;-80
2021/05/04 05:28:38;;;;;;;3.38;3.13;;;8.60;99.90;;;;;;5132645;27;20043;-80
2021/05/04 05:31:12;;;;;;;4.35;3.70;;;8.50;99.90;;;;;;5103043;27;20051;-81
2021/05/04 05:33:39;;;;;;;3.88;3.58;;;8.60;99.90;;;;;;5122775;27;20075;-81
2021/05/04 05:36:06;;;;;;;4.03;3.08;;;8.60;99.90;;;;;;5134300;27;20047;-83
2021/05/04 05:38:35;;;;;;;16.67;10.93;;;8.60;99.90;;;;;;5107307;28;20056;-82
2021/05/04 05:41:03;;;;;;;9.82;6.88;;;8.60;99.90;;;;;;5096381;27;20047;-82
2021/05/04 05:43:29;;;;;;;3.90;3.58;;;8.60;99.90;;;;;;5127352;27;20040;-82
2021/05/04 05:45:55;;;;;;;3.80;3.50;;;8.70;99.90;;;;;;5126931;28;20043;-82
2021/05/04 05:48:22;;;;;;;6.10;3.17;;;8.70;99.90;;;;;;5127397;28;20055;-83
2021/05/04 05:50:48;;;;;;;4.50;3.30;;;8.70;99.90;;;;;;5106313;28;20047;-83
2021/05/04 05:53:14;;;;;;;7.10;3.58;;;8.70;99.90;;;;;;5107045;28;20052;-80
2021/05/04 05:55:42;;;;;;;5.10;4.00;;;8.80;99.90;;;;;;5109451;28;20092;-82
2021/05/04 05:58:08;;;;;;;6.32;3.80;;;8.70;99.90;;;;;;5108824;28;20615;-82
2021/05/04 06:00:34;;;;;;;6.13;3.95;;;8.70;99.90;;;;;;5128756;28;20055;-81
2021/05/04 06:03:03;;;;;;;3.55;3.25;;;8.70;99.90;;;;;;5137768;27;20043;-82
2021/05/04 06:05:32;;;;;;;4.00;3.22;;;8.70;99.90;;;;;;5126104;27;20135;-82
2021/05/04 06:07:59;;;;;;;4.28;3.50;;;8.90;99.90;;;;;;5126549;27;20066;-82
2021/05/04 06:10:44;;;;;;;4.50;3.83;;;9.00;99.90;;;;;;5145026;27;20490;-82
2021/05/04 06:13:10;;;;;;;4.47;3.70;;;9.00;99.90;;;;;;5110819;28;20503;-81
2021/05/04 06:15:43;;;;;;;6.60;3.53;;;9.00;99.90;;;;;;5123986;28;20074;-82
2021/05/04 06:18:09;;;;;;;5.75;3.58;;;9.10;99.90;;;;;;5108511;28;20442;-81
2021/05/04 06:20:35;;;;;;;4.43;3.60;;;9.30;99.90;;;;;;5105022;28;20422;-81
2021/05/04 06:23:03;;;;;;;3.45;3.15;;;9.60;99.90;;;;;;5136325;27;20039;-80
2021/05/04 06:25:30;;;;;;;3.67;2.72;;;10.30;99.90;;;;;;5124322;27;20065;-81
2021/05/04 06:28:05;;;;;;;4.70;3.58;;;11.20;99.90;;;;;;5124158;27;20587;-83
2021/05/04 06:30:35;;;;;;;3.92;3.10;;;11.60;99.90;;;;;;5125482;27;20047;-82
2021/05/04 06:33:08;;;;;;;2.97;2.78;;;12.70;99.90;;;;;;5126126;27;20051;-81
2021/05/04 06:35:38;;;;;;;3.00;2.80;;;13.50;99.90;;;;;;5123708;27;20066;-81
2021/05/04 06:38:13;;;;;;;3.03;2.83;;;13.80;98.40;;;;;;5128705;27;20475;-81
2021/05/04 06:40:40;;;;;;;11.07;3.60;;;14.10;95.50;;;;;;5103881;28;20112;-82
2021/05/04 06:43:07;;;;;;;3.28;2.60;;;14.40;93.00;;;;;;5117645;27;20047;-80
2021/05/04 06:45:33;;;;;;;4.93;2.80;;;14.70;90.10;;;;;;5124662;27;20096;-80
2021/05/04 06:47:59;;;;;;;3.83;2.35;;;15.00;88.30;;;;;;5128884;27;20057;-80
2021/05/04 06:50:26;;;;;;;2.65;2.45;;;15.00;81.70;;;;;;5122213;28;20074;-81
2021/05/04 06:52:53;;;;;;;2.85;2.42;;;14.90;80.40;;;;;;5121003;28;20555;-81
2021/05/04 06:55:20;;;;;;;3.83;2.63;;;14.50;83.40;;;;;;5122895;28;20048;-81
2021/05/04 06:57:47;;;;;;;5.72;2.47;;;14.40;81.50;;;;;;5124161;28;20051;-80
2021/05/04 07:00:14;;;;;;;4.97;1.98;;;14.10;82.30;;;;;;5124777;28;20399;-79
2021/05/04 07:02:41;;;;;;;6.35;2.10;;;13.90;84.60;;;;;;5101502;28;20044;-80
2021/05/04 07:05:08;;;;;;;2.65;1.85;;;13.70;85.70;;;;;;5119454;28;20054;-79
2021/05/04 07:07:35;;;;;;;5.75;2.10;;;13.80;85.10;;;;;;5119339;28;20051;-78
2021/05/04 07:10:02;;;;;;;5.95;2.35;;;13.60;84.90;;;;;;5101602;28;20054;-80
2021/05/04 07:12:29;;;;;;;8.75;2.92;;;13.40;85.40;;;;;;5128855;27;20061;-79
2021/05/04 07:14:55;;;;;;;31.05;3.65;;;13.20;86.20;;;;;;5098309;28;20098;-79
2021/05/04 07:17:23;;;;;;;2.28;1.85;;;13.20;90.00;;;;;;5103990;27;20082;-78
2021/05/04 07:19:50;;;;;;;3.75;2.15;;;13.20;88.60;;;;;;5137046;27;20094;-78
2021/05/04 07:22:21;;;;;;;1.92;1.70;;;13.10;87.80;;;;;;5119092;27;20066;-80
2021/05/04 07:24:48;;;;;;;9.98;2.90;;;13.20;90.90;;;;;;5118128;27;20043;-80
2021/05/04 07:27:14;;;;;;;3.03;1.85;;;13.20;89.50;;;;;;5132574;27;20448;-79
2021/05/04 07:29:41;;;;;;;6.45;1.98;;;13.50;88.20;;;;;;5097992;28;20047;-78
2021/05/04 07:32:08;;;;;;;2.42;2.00;;;13.50;87.60;;;;;;5116816;27;20082;-79
2021/05/04 07:34:35;;;;;;;4.15;1.95;;;13.50;90.30;;;;;;5139020;27;20047;-80
2021/05/04 07:37:01;;;;;;;4.15;2.25;;;13.40;87.80;;;;;;5120757;27;20055;-82
2021/05/04 07:39:28;;;;;;;9.75;2.60;;;13.50;90.90;;;;;;5139702;27;20139;-80
2021/05/04 07:41:55;;;;;;;22.05;3.53;;;13.40;89.20;;;;;;5129107;27;20447;-80
2021/05/04 07:44:22;;;;;;;6.03;2.30;;;13.20;91.10;;;;;;5099849;28;20067;-79
2021/05/04 07:46:49;;;;;;;7.13;2.90;;;13.10;91.50;;;;;;5099832;28;20059;-79
2021/05/04 07:49:22;;;;;;;10.50;6.80;;;13.10;92.10;;;;;;5100180;28;20048;-79
2021/05/04 07:51:49;;;;;;;3.67;2.70;;;13.10;93.00;;;;;;5117788;28;20406;-80
2021/05/04 07:54:18;;;;;;;6.10;2.47;;;13.30;94.10;;;;;;5100026;28;20058;-81
2021/05/04 07:56:45;;;;;;;10.15;2.80;;;13.20;93.80;;;;;;5107771;27;20055;-80
2021/05/04 07:59:11;;;;;;;7.53;2.15;;;13.10;96.60;;;;;;5100030;28;20069;-79
2021/05/04 08:01:38;;;;;;;71.88;5.38;;;13.30;97.20;;;;;;5101831;28;20073;-81
2021/05/04 08:04:08;;;;;;;5.95;2.15;;;13.20;98.30;;;;;;5137822;27;20512;-80
2021/05/04 08:06:34;;;;;;;6.38;2.10;;;13.20;99.90;;;;;;5123103;27;20054;-79
2021/05/04 08:09:01;;;;;;;3.95;3.50;;;13.10;99.90;;;;;;5126839;27;20073;-81
2021/05/04 08:11:27;;;;;;;4.22;3.83;;;13.40;99.90;;;;;;5103333;28;20418;-80
2021/05/04 08:13:55;;;;;;;1.85;1.75;;;13.50;99.90;;;;;;5105768;27;20043;-80
2021/05/04 08:16:21;;;;;;;3.42;2.10;;;13.70;99.90;;;;;;5108770;28;20086;-78
2021/05/04 08:18:52;;;;;;;2.30;2.10;;;13.90;99.90;;;;;;5107447;28;20044;-83
2021/05/04 08:21:20;;;;;;;4.45;1.67;;;14.10;99.90;;;;;;5118523;28;20040;-82
2021/05/04 08:23:46;;;;;;;3.20;1.90;;;14.10;99.90;;;;;;5137972;28;20494;-79
2021/05/04 08:26:14;;;;;;;1.90;1.80;;;13.80;99.90;;;;;;5140105;28;20043;-79
2021/05/04 08:28:45;;;;;;;3.03;2.00;;;13.90;99.90;;;;;;5122071;28;20082;-81
2021/05/04 08:31:12;;;;;;;1.70;1.60;;;14.30;99.90;;;;;;5142115;28;20040;-81
2021/05/04 08:33:39;;;;;;;2.03;1.90;;;14.60;98.40;;;;;;5110640;28;20078;-81
2021/05/04 08:36:05;;;;;;;2.40;1.63;;;15.40;92.90;;;;;;5118956;28;20079;-79
2021/05/04 08:38:32;;;;;;;1.52;1.42;;;16.20;90.30;;;;;;5100046;28;20130;-83
2021/05/04 08:41:00;;;;;;;1.90;1.33;;;17.70;76.00;;;;;;5102071;28;20071;-84
2021/05/04 08:43:27;;;;;;;1.48;1.38;;;18.80;71.00;;;;;;5111553;28;20065;-82
2021/05/04 08:45:59;;;;;;;5.78;1.92;;;18.50;60.90;;;;;;5099530;28;20437;-81
2021/05/04 08:48:26;;;;;;;6.82;1.70;;;17.20;64.40;;;;;;5099295;28;20051;-80
2021/05/04 08:50:54;;;;;;;2.70;1.30;;;16.40;69.00;;;;;;5116692;28;20048;-78
2021/05/04 08:53:41;;;;;;;1.60;1.45;;;16.80;68.90;;;;;;5128047;28;20058;-81
2021/05/04 08:56:09;;;;;;;3.90;1.48;;;17.20;70.30;;;;;;5140598;27;20051;-79
2021/05/04 08:58:35;;;;;;;3.35;1.08;;;18.00;62.90;;;;;;5123262;27;20047;-80
2021/05/04 09:01:12;;;;;;;2.95;1.08;;;18.60;60.20;;;;;;5125299;27;20051;-81
2021/05/04 09:06:26;;;;;;;3.58;1.27;;;19.90;57.60;;;;;;5122658;28;20075;-79
2021/05/04 09:09:03;;;;;;;4.03;1.90;;;20.70;53.30;;;;;;5114347;27;20096;-79
2021/05/04 09:14:48;;;;;;;3.17;1.10;;;20.10;50.30;;;;;;5034527;28;20144;-80
2021/05/04 09:20:05;;;;;;;13.70;1.77;;;19.60;51.80;;;;;;5097740;28;20071;-79
2021/05/04 09:22:39;;;;;;;10.68;1.98;;;19.30;51.50;;;;;;5079650;28;20086;-79
2021/05/04 09:25:27;;;;;;;2.88;1.25;;;19.60;50.90;;;;;;5096186;28;20073;-77
2021/05/04 09:28:09;;;;;;;2.00;1.35;;;18.70;51.50;;;;;;5084074;27;20075;-79
2021/05/04 09:30:36;;;;;;;3.45;1.30;;;19.80;52.80;;;;;;5138493;27;20069;-85
2021/05/04 09:33:07;;;;;;;4.28;1.20;;;19.90;49.40;;;;;;5137855;27;20051;-82
2021/05/04 09:35:34;;;;;;;1.15;1.10;;;19.40;51.50;;;;;;5106091;28;20039;-79
2021/05/04 09:38:03;;;;;;;1.20;1.10;;;19.20;51.60;;;;;;5124683;28;20078;-83
2021/05/04 09:40:33;;;;;;;3.38;1.35;;;19.00;52.70;;;;;;5124391;28;20093;-81
2021/05/04 09:43:10;;;;;;;20.45;2.83;;;18.60;52.50;;;;;;5124378;27;20097;-84
2021/05/04 09:45:42;;;;;;;9.77;1.70;;;17.30;53.20;;;;;;5141240;27;20104;-81
2021/05/04 09:48:16;;;;;;;11.50;2.03;;;16.40;56.00;;;;;;5141106;27;20051;-81
2021/05/04 09:50:54;;;;;;;7.88;1.48;;;16.20;57.90;;;;;;5124357;27;20086;-81
2021/05/04 09:53:46;;;;;;;3.70;1.33;;;16.20;58.90;;;;;;5118997;28;20071;-78
2021/05/04 09:56:14;;;;;;;8.18;1.55;;;16.40;59.30;;;;;;5102163;28;20473;-82
2021/05/04 09:58:46;;;;;;;43.15;3.03;;;16.50;59.20;;;;;;5127685;27;20566;-83
2021/05/04 10:01:13;;;;;;;6.63;1.63;;;16.00;59.40;;;;;;5122043;27;20034;-82
2021/05/04 10:03:43;;;;;;;5.65;1.92;;;15.60;61.80;;;;;;5134965;27;20503;-83
2021/05/04 10:06:12;;;;;;;6.07;1.17;;;15.50;65.70;;;;;;5102650;28;20599;-82
2021/05/04 10:08:39;;;;;;;2.65;1.13;;;15.70;65.60;;;;;;5108104;27;20402;-84
2021/05/04 10:11:08;;;;;;;5.13;1.33;;;15.90;64.60;;;;;;5120660;27;20051;-83
2021/05/04 10:13:37;;;;;;;5.78;1.45;;;16.20;66.40;;;;;;5103288;28;20048;-81
2021/05/04 10:16:05;;;;;;;20.30;1.98;;;16.20;65.60;;;;;;5121095;28;20081;-81
2021/05/04 10:18:31;;;;;;;18.27;2.45;;;15.50;66.80;;;;;;5106313;27;20134;-84
2021/05/04 10:21:01;;;;;;;6.38;1.55;;;15.00;70.10;;;;;;5122395;27;20047;-80
2021/05/04 10:23:29;;;;;;;9.77;1.83;;;15.10;74.60;;;;;;5140883;27;20486;-82
2021/05/04 10:26:17;;;;;;;1.30;1.20;;;15.40;75.80;;;;;;5140768;27;20043;-81
2021/05/04 10:28:54;;;;;;;3.75;1.20;;;16.80;71.70;;;;;;5136069;27;20068;-81
2021/05/04 10:31:36;;;;;;;15.60;1.70;;;17.60;65.70;;;;;;5102461;28;20070;-81
2021/05/04 10:34:26;;;;;;;5.40;1.80;;;17.30;66.20;;;;;;5110088;27;20174;-79
2021/05/04 10:37:00;;;;;;;49.42;3.00;;;16.90;66.20;;;;;;5122385;27;20082;-82
2021/05/04 10:39:42;;;;;;;7.65;1.25;;;17.30;66.00;;;;;;5140212;27;20047;-81
2021/05/04 10:42:10;;;;;;;4.70;1.73;;;17.40;63.20;;;;;;5123284;27;20047;-83
2021/05/04 10:44:56;;;;;;;6.50;1.67;;;16.70;64.30;;;;;;5109263;28;20048;-82
2021/05/04 10:47:48;;;;;;;8.73;1.42;;;16.80;65.70;;;;;;5101258;28;20051;-83
2021/05/04 10:50:48;;;;;;;3.42;1.52;;;16.70;65.00;;;;;;5119753;27;20063;-81
2021/05/04 10:53:17;;;;;;;6.78;1.10;;;16.40;66.80;;;;;;5123706;27;20079;-80
2021/05/04 10:56:07;;;;;;;2.92;1.50;;;16.60;67.50;;;;;;5103921;28;20429;-79
2021/05/04 10:58:44;;;;;;;1.80;1.33;;;16.20;66.20;;;;;;5104634;27;20043;-81
2021/05/04 11:01:16;;;;;;;5.35;1.50;;;15.60;74.20;;;;;;5123499;27;20070;-84
2021/05/04 11:03:46;;;;;;;5.95;1.90;;;15.20;76.20;;;;;;5123328;27;20074;-80
2021/05/04 11:06:35;;;;;;;9.10;1.60;;;14.80;81.80;;;;;;5121977;27;20043;-83
2021/05/04 11:09:05;;;;;;;5.90;1.00;;;14.60;80.80;;;;;;5115356;28;20097;-80
2021/05/04 11:14:13;;;;;;;17.67;2.28;;;14.90;84.50;;;;;;5133753;27;20083;-80
2021/05/04 11:16:46;;;;;;;7.60;1.17;;;14.90;86.60;;;;;;5120531;27;20067;-81
2021/05/04 11:19:17;;;;;;;3.33;0.60;;;15.50;88.00;;;;;;5135516;27;20048;-81
2021/05/04 11:21:46;;;;;;;4.53;0.95;;;15.90;82.70;;;;;;5122168;27;20090;-79
2021/05/04 11:24:17;;;;;;;4.10;0.82;;;16.00;83.40;;;;;;5141022;27;20067;-82
2021/05/04 11:26:50;;;;;;;16.95;2.05;;;16.30;80.20;;;;;;5138647;27;20100;-82
2021/05/04 11:29:20;;;;;;;2.42;0.85;;;16.10;84.60;;;;;;5119050;27;20133;-78
2021/05/04 11:31:53;;;;;;;2.05;0.70;;;17.00;76.50;;;;;;5120011;27;20068;-79
2021/05/04 11:34:32;;;;;;;;;;;16.80;74.20;;;;;;5122420;27;20051;-80
2021/05/04 11:36:58;;;;;;;5.70;0.95;;;16.20;79.70;;;;;;5139520;27;19955;-81
2021/05/04 11:39:26;;;;;;;3.58;0.70;;;16.00;81.20;;;;;;5131986;27;20457;-85
2021/05/04 11:42:01;;;;;;;2.95;0.80;;;15.90;84.00;;;;;;5120074;27;20501;-83
2021/05/04 11:44:33;;;;;;;3.22;0.70;;;16.40;83.10;;;;;;5119887;27;20043;-84
2021/05/04 11:47:21;;;;;;;3.08;0.80;;;16.20;82.30;;;;;;5134216;27;20461;-78
2021/05/04 11:49:48;;;;;;;1.75;0.70;;;15.80;82.40;;;;;;5136448;27;20125;-83
2021/05/04 11:52:18;;;;;;;1.25;0.80;;;15.60;88.70;;;;;;5136947;27;20055;-81
2021/05/04 11:54:47;;;;;;;4.75;0.77;;;15.10;86.50;;;;;;5114347;28;20452;-83
2021/05/04 11:57:13;;;;;;;1.70;0.65;;;14.70;90.90;;;;;;5098186;28;20090;-81
2021/05/04 11:59:54;;;;;;;1.00;0.73;;;14.70;95.60;;;;;;5119824;27;20082;-83
2021/05/04 12:02:30;;;;;;;5.85;0.80;;;14.60;99.90;;;;;;5136591;27;20092;-82
2021/05/04 12:04:57;;;;;;;2.20;0.75;;;14.30;99.90;;;;;;5126786;27;20409;-83
2021/05/04 12:07:42;;;;;;;0.90;0.60;;;13.80;99.90;;;;;;5116272;28;20121;-82
2021/05/04 12:10:14;;;;;;;4.90;0.85;;;13.10;99.90;;;;;;5119408;27;20051;-83
2021/05/04 12:13:07;;;;;;;4.60;0.93;;;12.80;99.90;;;;;;5137824;27;20098;-81
2021/05/04 12:15:40;;;;;;;1.20;0.85;;;12.40;99.90;;;;;;5119630;27;20077;-83
2021/05/04 12:18:29;;;;;;;2.78;0.63;;;12.40;99.90;;;;;;5116969;28;20494;-82
2021/05/04 12:20:58;;;;;;;3.00;1.20;;;12.70;99.90;;;;;;5120035;27;20047;-80
2021/05/04 12:23:34;;;;;;;0.63;0.63;;;13.10;99.90;;;;;;5120928;28;20107;-81
2021/05/04 12:26:09;;;;;;;2.42;1.10;;;13.60;99.90;;;;;;5138699;28;20047;-78
2021/05/04 12:28:56;;;;;;;5.40;0.88;;;13.70;99.90;;;;;;5120449;28;20051;-81
2021/05/04 12:31:31;;;;;;;5.03;0.93;;;13.80;99.90;;;;;;5107446;27;20080;-80
2021/05/04 12:34:02;;;;;;;1.60;0.80;;;13.80;99.90;;;;;;5142381;27;20099;-78
2021/05/04 12:37:11;;;;;;;3.30;0.90;;;14.10;99.90;;;;;;5123849;27;20047;-82
2021/05/04 12:39:33;;;;;;;8.70;1.05;;;14.10;99.90;;;;;;5132436;27;20131;-80
2021/05/04 12:42:02;;;;;;;5.32;0.68;;;14.40;99.90;;;;;;5123166;27;20054;-82
2021/05/04 12:44:35;;;;;;;2.20;0.80;;;14.60;99.90;;;;;;5118592;28;20043;-81
2021/05/04 12:47:10;;;;;;;2.47;1.10;;;14.40;99.90;;;;;;5119509;28;20411;-79
2021/05/04 12:49:39;;;;;;;2.58;0.90;;;14.40;99.90;;;;;;5120102;28;20542;-80
2021/05/04 12:52:11;;;;;;;6.15;0.80;;;14.20;99.90;;;;;;5119057;28;20601;-77
2021/05/04 12:54:40;;;;;;;1.90;1.17;;;14.10;99.90;;;;;;5102420;28;20130;-82
2021/05/04 12:57:27;;;;;;;3.45;0.90;;;14.00;99.90;;;;;;5118827;28;20051;-79
2021/05/04 13:00:15;;;;;;;5.95;1.58;;;14.10;99.90;;;;;;5117192;28;20128;-79
2021/05/04 13:02:41;;;;;;;2.65;0.80;;;14.20;99.90;;;;;;5117473;28;20047;-81
2021/05/04 13:05:28;;;;;;;1.00;0.82;;;13.90;99.90;;;;;;5116914;28;20048;-81
2021/05/04 13:07:59;;;;;;;5.03;1.05;;;13.70;99.90;;;;;;5117499;28;20048;-81
2021/05/04 13:10:37;;;;;;;2.70;0.75;;;13.50;99.90;;;;;;5118017;27;20086;-81
2021/05/04 13:13:34;;;;;;;2.05;0.70;;;13.30;99.90;;;;;;5100030;28;20134;-81